createdAt,value
2024-05-09T00:02:41.590Z,100791.47
2024-05-09T00:05:44.622Z,100788.59
2024-05-09T00:08:47.434Z,100793.31
2024-05-09T00:11:50.096Z,100805.56
2024-05-09T00:14:52.807Z,100797.03
2024-05-09T00:17:55.559Z,100797.13
2024-05-09T00:20:58.339Z,100799.84
2024-05-09T00:24:00.954Z,100785.91
2024-05-09T00:27:03.798Z,100782.97
2024-05-09T00:30:07.281Z,100787.03
2024-05-09T00:33:11.321Z,100788.91
2024-05-09T00:36:14.551Z,100779.47
2024-05-09T00:39:17.231Z,100776.19
2024-05-09T00:42:19.811Z,100776.28
2024-05-09T00:45:22.498Z,100776.59
2024-05-09T00:48:27.079Z,100776.94
2024-05-09T00:51:29.943Z,100774.22
2024-05-09T00:54:33.310Z,100772.22
2024-05-09T00:57:36.117Z,100773.22
2024-05-09T01:00:41.063Z,100775.50
2024-05-09T01:03:45.940Z,100781.25
2024-05-09T01:06:49.340Z,100786.38
2024-05-09T01:09:54.906Z,100789.31
2024-05-09T01:12:57.609Z,100781.72
2024-05-09T01:16:01.181Z,100776.88
2024-05-09T01:19:04.854Z,100782.03
2024-05-09T01:22:08.165Z,100778.03
2024-05-09T01:25:10.838Z,100775.47
2024-05-09T01:28:13.543Z,100774.44
2024-05-09T01:31:16.210Z,100771.34
2024-05-09T01:34:19.053Z,100763.84
2024-05-09T01:37:21.722Z,100768.91
2024-05-09T01:40:33.514Z,100764.34
2024-05-09T01:43:40.434Z,100771.88
2024-05-09T01:46:43.116Z,100765.56
2024-05-09T01:49:45.977Z,100771.66
2024-05-09T01:52:48.671Z,100766.13
2024-05-09T01:55:51.459Z,100774.13
2024-05-09T01:58:54.291Z,100768.69
2024-05-09T02:01:57.922Z,100771.69
2024-05-09T02:05:00.871Z,100767.59
2024-05-09T02:08:04.345Z,100768.44
2024-05-09T02:11:08.934Z,100770.69
2024-05-09T02:14:11.837Z,100764.88
2024-05-09T02:17:14.546Z,100767.19
2024-05-09T02:20:26.734Z,100761.72
2024-05-09T02:23:32.949Z,100767.06
2024-05-09T02:26:35.774Z,100765.84
2024-05-09T02:29:38.387Z,100775.13
2024-05-09T02:32:41.347Z,100769.91
2024-05-09T02:35:44.514Z,100770.03
2024-05-09T02:38:47.311Z,100772.22
2024-05-09T02:41:50.023Z,100778.41
2024-05-09T02:44:55.003Z,100774.88
2024-05-09T02:47:57.897Z,100783.91
2024-05-09T02:51:02.755Z,100783.84
2024-05-09T02:54:07.758Z,100783.59
2024-05-09T02:57:10.415Z,100773.09
2024-05-09T03:00:19.019Z,100781.69
2024-05-09T03:03:28.770Z,100774.19
2024-05-09T03:06:31.582Z,100776.28
2024-05-09T03:09:34.232Z,100774.91
2024-05-09T03:12:39.230Z,100775.78
2024-05-09T03:15:42.570Z,100768.28
2024-05-09T03:18:45.855Z,100777.44
2024-05-09T03:21:48.537Z,100767.97
2024-05-09T03:24:51.266Z,100777.75
2024-05-09T03:27:53.865Z,100777.34
2024-05-09T03:30:56.447Z,100777.16
2024-05-09T03:33:59.113Z,100774.50
2024-05-09T03:37:01.786Z,100767.69
2024-05-09T03:40:07.368Z,100774.97
2024-05-09T03:43:14.735Z,100781.88
2024-05-09T03:46:17.590Z,100787.63
2024-05-09T03:49:20.574Z,100779.63
2024-05-09T03:52:23.247Z,100786.75
2024-05-09T03:55:25.778Z,100790.81
2024-05-09T03:58:28.350Z,100796.88
2024-05-09T04:01:31.108Z,100791.31
2024-05-09T04:04:33.930Z,100793.13
2024-05-09T04:07:37.975Z,100805.19
2024-05-09T04:10:41.104Z,100790.75
2024-05-09T04:13:43.978Z,100791.84
2024-05-09T04:16:46.836Z,100801.25
2024-05-09T04:19:49.527Z,100797.34
2024-05-09T04:22:52.222Z,100799.38
2024-05-09T04:25:55.005Z,100802.19
2024-05-09T04:28:58.057Z,100802.16
2024-05-09T04:32:01.045Z,100797.91
2024-05-09T04:35:03.985Z,100808.38
2024-05-09T04:38:06.891Z,100809.53
2024-05-09T04:41:09.605Z,100807.38
2024-05-09T04:44:12.351Z,100809.59
2024-05-09T04:47:15.780Z,100801.75
2024-05-09T04:50:28.908Z,100808.03
2024-05-09T04:53:36.732Z,100794.97
2024-05-09T04:56:39.427Z,100807.13
2024-05-09T04:59:42.364Z,100797.88
2024-05-09T05:02:45.829Z,100804.16
2024-05-09T05:05:50.502Z,100806.66
2024-05-09T05:08:53.256Z,100803.81
2024-05-09T05:11:56.045Z,100805.56
2024-05-09T05:14:59.399Z,100808.84
2024-05-09T05:18:02.171Z,100809.63
2024-05-09T05:21:07.033Z,100806.25
2024-05-09T05:24:09.657Z,100806.88
2024-05-09T05:27:12.248Z,100807.13
2024-05-09T05:30:21.518Z,100813.59
2024-05-09T05:33:31.601Z,100815.16
2024-05-09T05:36:34.419Z,100812.91
2024-05-09T05:39:38.085Z,100817.38
2024-05-09T05:42:40.814Z,100817.50
2024-05-09T05:45:43.948Z,100827.22
2024-05-09T05:48:49.748Z,100829.72
2024-05-09T05:51:52.767Z,100826.59
2024-05-09T05:54:55.586Z,100827.00
2024-05-09T05:57:58.426Z,100821.09
2024-05-09T06:01:01.141Z,100821.38
2024-05-09T06:04:04.222Z,100816.34
2024-05-09T06:07:07.123Z,100825.47
2024-05-09T06:10:17.279Z,100821.88
2024-05-09T06:13:24.300Z,100825.50
2024-05-09T06:16:27.214Z,100833.69
2024-05-09T06:19:32.268Z,100823.88
2024-05-09T06:22:35.453Z,100824.13
2024-05-09T06:25:39.556Z,100827.38
2024-05-09T06:28:42.331Z,100835.75
2024-05-09T06:31:46.286Z,100846.31
2024-05-09T06:34:49.220Z,100838.53
2024-05-09T06:37:52.848Z,100838.00
2024-05-09T06:40:55.721Z,100839.50
2024-05-09T06:43:58.597Z,100849.41
2024-05-09T06:47:01.450Z,100849.19
2024-05-09T06:50:08.340Z,100848.56
2024-05-09T06:53:17.391Z,100858.09
2024-05-09T06:56:20.232Z,100855.03
2024-05-09T06:59:23.295Z,100862.22
2024-05-09T07:02:26.421Z,100858.19
2024-05-09T07:05:29.649Z,100855.78
2024-05-09T07:08:33.184Z,100854.56
2024-05-09T07:11:37.617Z,100855.72
2024-05-09T07:14:40.483Z,100854.53
2024-05-09T07:17:43.451Z,100858.16
2024-05-09T07:20:47.942Z,100859.09
2024-05-09T07:23:51.218Z,100865.56
2024-05-09T07:26:54.055Z,100853.75
2024-05-09T07:29:57.847Z,100861.59
2024-05-09T07:33:01.007Z,100852.03
2024-05-09T07:36:04.134Z,100859.34
2024-05-09T07:39:06.940Z,100858.09
2024-05-09T07:42:12.185Z,100866.59
2024-05-09T07:45:30.113Z,100867.69
2024-05-09T07:54:49.476Z,100865.22
2024-05-09T07:57:52.679Z,100864.38
2024-05-09T08:00:55.790Z,100856.28
2024-05-09T08:03:58.771Z,100864.81
2024-05-09T08:07:01.747Z,100864.31
2024-05-09T08:10:10.646Z,100869.56
2024-05-09T08:13:15.535Z,100865.88
2024-05-09T08:16:18.261Z,100864.56
2024-05-09T08:19:21.196Z,100860.00
2024-05-09T08:22:24.244Z,100865.75
2024-05-09T08:25:27.269Z,100869.59
2024-05-09T08:28:30.128Z,100870.22
2024-05-09T08:31:38.075Z,100859.97
2024-05-09T08:34:41.223Z,100861.06
2024-05-09T08:37:44.171Z,100868.66
2024-05-09T08:40:48.784Z,100870.13
2024-05-09T08:43:51.816Z,100867.28
2024-05-09T08:46:54.739Z,100863.88
2024-05-09T08:50:00.664Z,100876.09
2024-05-09T08:53:03.482Z,100870.88
2024-05-09T08:56:11.368Z,100869.88
2024-05-09T08:59:23.928Z,100876.88
2024-05-09T09:02:27.560Z,100872.59
2024-05-09T09:05:31.645Z,100871.97
2024-05-09T09:08:34.636Z,100864.81
2024-05-09T09:11:37.412Z,100863.88
2024-05-09T09:14:40.294Z,100866.56
2024-05-09T09:17:54.523Z,100853.09
2024-05-09T09:20:57.364Z,100874.09
2024-05-09T09:24:00.048Z,100865.84
2024-05-09T09:27:02.662Z,100874.53
2024-05-09T09:30:13.180Z,100866.94
2024-05-09T09:33:20.966Z,100871.81
2024-05-09T09:36:23.741Z,100867.28
2024-05-09T09:39:28.532Z,100862.03
2024-05-09T09:42:34.497Z,100858.09
2024-05-09T09:45:38.237Z,100854.59
2024-05-09T09:48:42.165Z,100851.88
2024-05-09T09:51:46.727Z,100848.09
2024-05-09T09:54:50.868Z,100854.22
2024-05-09T09:57:56.340Z,100849.81
2024-05-09T10:01:01.843Z,100848.34
2024-05-09T10:04:05.686Z,100851.00
2024-05-09T10:07:10.688Z,100853.59
2024-05-09T10:10:29.897Z,100845.59
2024-05-09T10:13:35.693Z,100847.09
2024-05-09T10:16:45.016Z,100839.84
2024-05-09T10:19:47.788Z,100853.25
2024-05-09T10:22:50.583Z,100835.84
2024-05-09T10:26:00.210Z,100832.25
2024-05-09T10:29:16.465Z,100839.31
2024-05-09T10:32:19.380Z,100843.63
2024-05-09T10:35:22.798Z,100835.63
2024-05-09T10:38:26.412Z,100835.78
2024-05-09T10:41:29.371Z,100839.19
2024-05-09T10:44:38.090Z,100836.91
2024-05-09T10:47:42.376Z,100840.03
2024-05-09T10:50:47.032Z,100829.88
2024-05-09T10:53:49.840Z,100835.19
2024-05-09T10:56:58.610Z,100825.66
2024-05-09T11:00:01.759Z,100824.78
2024-05-09T11:03:04.931Z,100822.72
2024-05-09T11:06:09.794Z,100824.97
2024-05-09T11:09:13.431Z,100799.91
2024-05-09T11:12:16.536Z,100813.16
2024-05-09T11:15:19.415Z,100802.50
2024-05-09T11:18:28.200Z,100809.31
2024-05-09T11:21:32.858Z,100803.16
2024-05-09T11:24:35.956Z,100804.44
2024-05-09T11:27:41.032Z,100792.06
2024-05-09T11:30:43.945Z,100800.00
2024-05-09T11:33:47.102Z,100792.63
2024-05-09T11:36:50.114Z,100792.09
2024-05-09T11:39:54.059Z,100783.09
2024-05-09T11:42:57.005Z,100775.34
2024-05-09T11:46:00.468Z,100784.78
2024-05-09T11:49:03.533Z,100781.56
2024-05-09T11:52:06.600Z,100764.78
2024-05-09T11:55:09.660Z,100768.03
2024-05-09T11:58:14.769Z,100772.16
2024-05-09T12:01:20.098Z,100767.19
2024-05-09T12:04:23.756Z,100775.78
2024-05-09T12:07:26.807Z,100767.63
2024-05-09T12:10:33.943Z,100767.78
2024-05-09T12:13:38.628Z,100765.53
2024-05-09T12:16:43.359Z,100765.97
2024-05-09T12:19:48.034Z,100753.81
2024-05-09T12:22:51.179Z,100758.31
2024-05-09T12:25:54.507Z,100762.19
2024-05-09T12:28:58.860Z,100753.75
2024-05-09T12:32:02.700Z,100749.09
2024-05-09T12:35:05.610Z,100746.53
2024-05-09T12:38:08.718Z,100748.66
2024-05-09T12:41:11.440Z,100737.22
2024-05-09T12:44:14.428Z,100738.69
2024-05-09T12:47:17.136Z,100739.19
2024-05-09T12:50:28.806Z,100735.78
2024-05-09T12:53:36.234Z,100740.66
2024-05-09T12:56:39.007Z,100744.38
2024-05-09T12:59:42.578Z,100746.19
2024-05-09T13:02:47.524Z,100739.53
2024-05-09T13:05:51.788Z,100732.63
2024-05-09T13:08:54.637Z,100725.69
2024-05-09T13:11:57.327Z,100725.44
2024-05-09T13:15:00.026Z,100721.16
2024-05-09T13:18:04.057Z,100721.44
2024-05-09T13:21:07.294Z,100713.13
2024-05-09T13:24:10.100Z,100721.19
2024-05-09T13:27:12.739Z,100705.34
2024-05-09T13:30:22.052Z,100712.66
2024-05-09T13:33:33.373Z,100709.78
2024-05-09T13:36:36.440Z,100701.91
2024-05-09T13:39:39.100Z,100698.75
2024-05-09T13:42:41.781Z,100696.34
2024-05-09T13:45:44.523Z,100687.47
2024-05-09T13:48:47.334Z,100692.06
2024-05-09T13:51:51.986Z,100693.88
2024-05-09T13:54:54.939Z,100695.53
2024-05-09T13:57:57.810Z,100684.19
2024-05-09T14:01:00.626Z,100686.53
2024-05-09T14:04:03.731Z,100680.63
2024-05-09T14:07:07.594Z,100687.91
2024-05-09T14:10:19.752Z,100679.47
2024-05-09T14:13:28.791Z,100687.97
2024-05-09T14:16:32.889Z,100685.63
2024-05-09T14:19:36.174Z,100682.03
2024-05-09T14:22:40.987Z,100689.16
2024-05-09T14:25:45.046Z,100687.22
2024-05-09T14:28:48.626Z,100680.72
2024-05-09T14:31:51.252Z,100683.41
2024-05-09T14:34:54.683Z,100688.16
2024-05-09T14:37:58.267Z,100693.16
2024-05-09T14:41:01.003Z,100684.53
2024-05-09T14:44:04.207Z,100677.03
2024-05-09T14:47:07.929Z,100687.97
2024-05-09T14:50:16.837Z,100680.06
2024-05-09T14:53:27.147Z,100686.34
2024-05-09T14:56:30.028Z,100676.75
2024-05-09T14:59:32.753Z,100673.66
2024-05-09T15:02:35.903Z,100672.53
2024-05-09T15:05:38.810Z,100677.47
2024-05-09T15:08:41.990Z,100677.09
2024-05-09T15:11:46.013Z,100675.66
2024-05-09T15:14:48.826Z,100674.41
2024-05-09T15:17:52.473Z,100679.13
2024-05-09T15:20:55.483Z,100672.53
2024-05-09T15:23:58.252Z,100669.72
2024-05-09T15:27:01.009Z,100673.97
2024-05-09T15:30:06.863Z,100665.38
2024-05-09T15:33:11.851Z,100666.34
2024-05-09T15:36:14.699Z,100675.72
2024-05-09T15:39:17.758Z,100673.88
2024-05-09T15:42:20.455Z,100663.13
2024-05-09T15:45:23.057Z,100667.91
2024-05-09T15:48:25.983Z,100665.19
2024-05-09T15:51:29.249Z,100661.31
2024-05-09T15:54:31.949Z,100663.34
2024-05-09T15:57:34.684Z,100662.50
2024-05-09T16:00:41.634Z,100665.25
2024-05-09T16:03:47.117Z,100671.19
2024-05-09T16:06:50.752Z,100668.03
2024-05-09T16:09:56.474Z,100672.38
2024-05-09T16:12:59.446Z,100663.03
2024-05-09T16:16:02.350Z,100669.66
2024-05-09T16:19:05.218Z,100673.50
2024-05-09T16:22:08.280Z,100672.38
2024-05-09T16:25:11.123Z,100668.88
2024-05-09T16:28:14.125Z,100673.53
2024-05-09T16:31:17.020Z,100665.69
2024-05-09T16:34:19.885Z,100673.84
2024-05-09T16:37:24.248Z,100683.91
2024-05-09T16:40:37.727Z,100680.75
2024-05-09T16:43:43.069Z,100681.47
2024-05-09T16:46:46.112Z,100683.78
2024-05-09T16:49:48.994Z,100681.84
2024-05-09T16:52:51.726Z,100677.16
2024-05-09T16:55:55.044Z,100678.13
2024-05-09T16:58:57.721Z,100681.56
2024-05-09T17:02:00.682Z,100687.34
2024-05-09T17:05:04.011Z,100668.59
2024-05-09T17:08:07.524Z,100694.53
2024-05-09T17:11:12.374Z,100688.19
2024-05-09T17:14:15.328Z,100694.56
2024-05-09T17:17:20.038Z,100702.25
2024-05-09T17:20:29.772Z,100693.25
2024-05-09T17:23:37.234Z,100690.41
2024-05-09T17:26:39.951Z,100701.13
2024-05-09T17:29:42.590Z,100707.09
2024-05-09T17:32:45.302Z,100699.84
2024-05-09T17:35:50.770Z,100707.88
2024-05-09T17:38:53.627Z,100701.97
2024-05-09T17:41:56.233Z,100701.28
2024-05-09T17:44:58.800Z,100692.03
2024-05-09T17:48:01.970Z,100701.13
2024-05-09T17:51:05.296Z,100704.81
2024-05-09T17:54:07.885Z,100705.06
2024-05-09T17:57:10.563Z,100703.91
2024-05-09T18:00:14.934Z,100699.63
2024-05-09T18:03:23.307Z,100711.28
2024-05-09T18:06:26.380Z,100709.25
2024-05-09T18:09:29.112Z,100708.47
2024-05-09T18:12:31.838Z,100711.38
2024-05-09T18:15:36.425Z,100719.31
2024-05-09T18:18:39.573Z,100719.09
2024-05-09T18:21:42.829Z,100727.28
2024-05-09T18:24:46.069Z,100722.63
2024-05-09T18:27:48.950Z,100733.50
2024-05-09T18:30:51.727Z,100733.78
2024-05-09T18:33:55.355Z,100743.81
2024-05-09T18:36:59.258Z,100744.50
2024-05-09T18:40:09.230Z,100742.63
2024-05-09T18:43:14.424Z,100741.59
2024-05-09T18:46:18.252Z,100754.97
2024-05-09T18:49:21.126Z,100760.91
2024-05-09T18:52:24.534Z,100762.13
2024-05-09T18:55:27.251Z,100769.06
2024-05-09T18:58:29.952Z,100774.34
2024-05-09T19:01:33.602Z,100777.28
2024-05-09T19:04:36.955Z,100780.19
2024-05-09T19:07:40.526Z,100781.69
2024-05-09T19:10:45.985Z,100787.56
2024-05-09T19:13:49.068Z,100788.50
2024-05-09T19:16:52.665Z,100797.72
2024-05-09T19:19:56.644Z,100799.09
2024-05-09T19:22:59.626Z,100804.38
2024-05-09T19:26:03.172Z,100799.56
2024-05-09T19:29:05.741Z,100804.75
2024-05-09T19:32:08.641Z,100808.13
2024-05-09T19:35:11.572Z,100808.47
2024-05-09T19:38:14.578Z,100815.84
2024-05-09T19:41:17.939Z,100811.50
2024-05-09T19:44:20.953Z,100816.88
2024-05-09T19:47:24.382Z,100817.53
2024-05-09T19:50:36.818Z,100812.16
2024-05-09T19:53:44.870Z,100808.91
2024-05-09T19:56:47.570Z,100816.06
2024-05-09T19:59:50.617Z,100819.53
2024-05-09T20:02:53.890Z,100818.16
2024-05-09T20:06:02.487Z,100819.94
2024-05-09T20:09:06.515Z,100821.59
2024-05-09T20:12:09.694Z,100821.47
2024-05-09T20:15:13.529Z,100826.34
2024-05-09T20:18:18.373Z,100839.38
2024-05-09T20:21:22.148Z,100827.50
2024-05-09T20:24:25.569Z,100838.09
2024-05-09T20:27:29.229Z,100842.59
2024-05-09T20:30:36.266Z,100850.56
2024-05-09T20:33:39.812Z,100850.38
2024-05-09T20:36:42.791Z,100847.41
2024-05-09T20:39:45.667Z,100850.50
2024-05-09T20:42:48.724Z,100854.78
2024-05-09T20:45:51.663Z,100855.84
2024-05-09T20:48:56.350Z,100856.47
2024-05-09T20:51:59.505Z,100856.94
2024-05-09T20:55:02.697Z,100854.97
2024-05-09T20:58:13.113Z,100859.94
2024-05-09T21:01:16.391Z,100859.38
2024-05-09T21:04:19.680Z,100851.88
2024-05-09T21:07:22.499Z,100857.03
2024-05-09T21:10:33.316Z,100859.09
2024-05-09T21:13:36.824Z,100856.97
2024-05-09T21:16:41.155Z,100852.50
2024-05-09T21:19:44.067Z,100853.81
2024-05-09T21:22:46.726Z,100850.34
2024-05-09T21:25:49.471Z,100850.25
2024-05-09T21:28:52.287Z,100854.50
2024-05-09T21:31:55.407Z,100859.56
2024-05-09T21:34:58.077Z,100859.63
2024-05-09T21:38:07.709Z,100862.75
2024-05-09T21:41:10.900Z,100867.34
2024-05-09T21:44:13.829Z,100865.78
2024-05-09T21:47:18.543Z,100876.84
2024-05-09T21:50:28.000Z,100889.78
2024-05-09T21:53:37.282Z,100895.16
2024-05-09T21:56:40.667Z,100897.84
2024-05-09T21:59:43.358Z,100905.41
2024-05-09T22:02:46.076Z,100906.03
2024-05-09T22:05:48.795Z,100915.63
2024-05-09T22:08:51.462Z,100929.56
2024-05-09T22:11:54.551Z,100928.41
2024-05-09T22:14:57.303Z,100936.16
2024-05-09T22:18:00.172Z,100943.66
2024-05-09T22:21:02.779Z,100935.66
2024-05-09T22:24:05.918Z,100928.16
2024-05-09T22:27:11.994Z,100925.03
2024-05-09T22:30:21.114Z,100941.88
2024-05-09T22:33:26.768Z,100947.22
2024-05-09T22:36:29.435Z,100939.00
2024-05-09T22:39:32.056Z,100938.53
2024-05-09T22:42:34.662Z,100942.75
2024-05-09T22:45:37.318Z,100950.22
2024-05-09T22:48:40.061Z,100951.13
2024-05-09T22:51:42.765Z,100941.59
2024-05-09T22:54:45.610Z,100949.84
2024-05-09T22:57:48.457Z,100957.22
2024-05-09T23:00:51.270Z,100947.41
2024-05-09T23:03:54.130Z,100944.09
2024-05-09T23:06:56.978Z,100943.00
2024-05-09T23:09:59.589Z,100948.97
2024-05-09T23:13:02.542Z,100947.38
2024-05-09T23:16:05.710Z,100954.44
2024-05-09T23:19:09.773Z,100949.22
2024-05-09T23:22:14.307Z,100945.44
2024-05-09T23:25:17.142Z,100939.75
2024-05-09T23:28:20.203Z,100940.47
2024-05-09T23:31:24.340Z,100946.09
2024-05-09T23:34:27.529Z,100948.84
2024-05-09T23:37:30.249Z,100935.84
2024-05-09T23:40:39.310Z,100936.34
2024-05-09T23:43:43.837Z,100933.38
2024-05-09T23:46:46.578Z,100931.91
2024-05-09T23:49:49.572Z,100930.09
2024-05-09T23:52:52.179Z,100924.28
2024-05-09T23:55:54.904Z,100920.06
2024-05-09T23:58:57.766Z,100927.91
